sensor_id;sensor_type;location;lat;lon;timestamp;pressure;altitude;pressure_sealevel;temperature;humidity
56182;BME280;51963;46.052;14.544;2022-11-20T00:03:36;97606.28;;;3.65;100.00
56182;BME280;51963;46.052;14.544;2022-11-20T00:06:04;97619.69;;;3.71;100.00
56182;BME280;51963;46.052;14.544;2022-11-20T00:08:30;97614.94;;;3.58;100.00
56182;BME280;51963;46.052;14.544;2022-11-20T00:10:56;97609.53;;;3.51;100.00
56182;BME280;51963;46.052;14.544;2022-11-20T00:13:21;97619.31;;;3.49;100.00
56182;BME280;51963;46.052;14.544;2022-11-20T00:15:47;97630.94;;;3.55;100.00
56182;BME280;51963;46.052;14.544;2022-11-20T00:18:13;97622.25;;;3.46;100.00
56182;BME280;51963;46.052;14.544;2022-11-20T00:20:38;97624.53;;;3.41;100.00
56182;BME280;51963;46.052;14.544;2022-11-20T00:23:04;97621.88;;;3.24;100.00
56182;BME280;51963;46.052;14.544;2022-11-20T00:25:31;97634.84;;;3.34;100.00
56182;BME280;51963;46.052;14.544;2022-11-20T00:27:58;97638.25;;;3.34;100.00
56182;BME280;51963;46.052;14.544;2022-11-20T00:30:24;97640.84;;;3.26;100.00
56182;BME280;51963;46.052;14.544;2022-11-20T00:32:50;97645.41;;;3.24;100.00
56182;BME280;51963;46.052;14.544;2022-11-20T00:35:15;97646.06;;;3.26;100.00
56182;BME280;51963;46.052;14.544;2022-11-20T00:37:41;97648.81;;;3.16;100.00
56182;BME280;51963;46.052;14.544;2022-11-20T00:40:07;97649.38;;;3.45;100.00
56182;BME280;51963;46.052;14.544;2022-11-20T00:42:33;97653.66;;;3.62;100.00
56182;BME280;51963;46.052;14.544;2022-11-20T00:44:59;97651.22;;;3.61;100.00
56182;BME280;51963;46.052;14.544;2022-11-20T00:47:24;97652.31;;;3.50;100.00
56182;BME280;51963;46.052;14.544;2022-11-20T00:49:50;97647.09;;;3.42;100.00
56182;BME280;51963;46.052;14.544;2022-11-20T00:52:16;97662.09;;;3.40;100.00
56182;BME280;51963;46.052;14.544;2022-11-20T00:54:41;97642.34;;;3.37;100.00
56182;BME280;51963;46.052;14.544;2022-11-20T00:57:07;97621.94;;;3.41;100.00
56182;BME280;51963;46.052;14.544;2022-11-20T00:59:32;97645.50;;;3.82;100.00
56182;BME280;51963;46.052;14.544;2022-11-20T01:01:58;97633.41;;;3.89;100.00
56182;BME280;51963;46.052;14.544;2022-11-20T01:04:24;97653.38;;;3.90;100.00
56182;BME280;51963;46.052;14.544;2022-11-20T01:06:49;97646.16;;;3.92;100.00
56182;BME280;51963;46.052;14.544;2022-11-20T01:09:15;97652.56;;;3.98;100.00
56182;BME280;51963;46.052;14.544;2022-11-20T01:11:43;97656.63;;;4.09;100.00
56182;BME280;51963;46.052;14.544;2022-11-20T01:14:17;97657.78;;;3.98;100.00
56182;BME280;51963;46.052;14.544;2022-11-20T01:16:47;97660.22;;;3.83;100.00
56182;BME280;51963;46.052;14.544;2022-11-20T01:19:16;97659.22;;;3.67;100.00
56182;BME280;51963;46.052;14.544;2022-11-20T01:21:42;97651.53;;;3.58;100.00
56182;BME280;51963;46.052;14.544;2022-11-20T01:24:12;97649.72;;;3.50;100.00
56182;BME280;51963;46.052;14.544;2022-11-20T01:26:39;97651.19;;;3.44;100.00
56182;BME280;51963;46.052;14.544;2022-11-20T01:29:06;97660.16;;;3.42;100.00
56182;BME280;51963;46.052;14.544;2022-11-20T01:31:35;97663.59;;;3.42;100.00
56182;BME280;51963;46.052;14.544;2022-11-20T01:34:04;97657.06;;;3.46;100.00
56182;BME280;51963;46.052;14.544;2022-11-20T01:36:31;97665.88;;;3.45;100.00
56182;BME280;51963;46.052;14.544;2022-11-20T01:39:00;97650.34;;;3.44;100.00
56182;BME280;51963;46.052;14.544;2022-11-20T01:41:30;97657.59;;;3.75;100.00
56182;BME280;51963;46.052;14.544;2022-11-20T01:44:17;97665.44;;;3.83;100.00
56182;BME280;51963;46.052;14.544;2022-11-20T01:46:56;97666.75;;;3.87;100.00
56182;BME280;51963;46.052;14.544;2022-11-20T01:49:34;97663.50;;;3.85;100.00
56182;BME280;51963;46.052;14.544;2022-11-20T01:52:05;97662.81;;;3.66;100.00
56182;BME280;51963;46.052;14.544;2022-11-20T01:54:37;97662.66;;;3.68;100.00
56182;BME280;51963;46.052;14.544;2022-11-20T01:57:06;97655.94;;;3.57;100.00
56182;BME280;51963;46.052;14.544;2022-11-20T01:59:35;97647.97;;;3.67;100.00
56182;BME280;51963;46.052;14.544;2022-11-20T02:02:03;97652.38;;;3.75;100.00
56182;BME280;51963;46.052;14.544;2022-11-20T02:04:28;97650.06;;;3.63;100.00
56182;BME280;51963;46.052;14.544;2022-11-20T02:07:01;97653.97;;;3.59;100.00
56182;BME280;51963;46.052;14.544;2022-11-20T02:09:27;97657.25;;;3.61;100.00
56182;BME280;51963;46.052;14.544;2022-11-20T02:11:53;97651.03;;;3.54;100.00
56182;BME280;51963;46.052;14.544;2022-11-20T02:14:21;97650.22;;;3.54;100.00
56182;BME280;51963;46.052;14.544;2022-11-20T02:16:48;97650.06;;;3.55;100.00
56182;BME280;51963;46.052;14.544;2022-11-20T02:19:30;97647.59;;;3.45;100.00
56182;BME280;51963;46.052;14.544;2022-11-20T02:22:02;97648.22;;;3.39;100.00
56182;BME280;51963;46.052;14.544;2022-11-20T02:24:30;97647.72;;;3.35;100.00
56182;BME280;51963;46.052;14.544;2022-11-20T02:26:57;97641.50;;;3.28;100.00
56182;BME280;51963;46.052;14.544;2022-11-20T02:29:28;97636.59;;;3.33;100.00
56182;BME280;51963;46.052;14.544;2022-11-20T02:31:57;97650.72;;;3.74;100.00
56182;BME280;51963;46.052;14.544;2022-11-20T02:34:24;97643.88;;;3.89;100.00
56182;BME280;51963;46.052;14.544;2022-11-20T02:36:51;97658.59;;;3.99;100.00
56182;BME280;51963;46.052;14.544;2022-11-20T02:39:19;97658.28;;;4.02;100.00
56182;BME280;51963;46.052;14.544;2022-11-20T02:41:46;97647.47;;;3.96;100.00
56182;BME280;51963;46.052;14.544;2022-11-20T02:44:12;97649.44;;;3.86;100.00
56182;BME280;51963;46.052;14.544;2022-11-20T02:46:37;97653.19;;;3.75;100.00
56182;BME280;51963;46.052;14.544;2022-11-20T02:49:04;97655.28;;;3.63;100.00
56182;BME280;51963;46.052;14.544;2022-11-20T02:51:30;97648.31;;;3.89;100.00
56182;BME280;51963;46.052;14.544;2022-11-20T02:53:56;97646.03;;;4.02;100.00
56182;BME280;51963;46.052;14.544;2022-11-20T02:56:21;97640.13;;;4.00;100.00
56182;BME280;51963;46.052;14.544;2022-11-20T02:58:47;97638.66;;;4.06;100.00
56182;BME280;51963;46.052;14.544;2022-11-20T03:01:13;97660.72;;;3.87;100.00
56182;BME280;51963;46.052;14.544;2022-11-20T03:03:38;97646.81;;;3.86;100.00
56182;BME280;51963;46.052;14.544;2022-11-20T03:06:04;97657.59;;;3.83;100.00
56182;BME280;51963;46.052;14.544;2022-11-20T03:08:30;97658.56;;;3.65;100.00
56182;BME280;51963;46.052;14.544;2022-11-20T03:10:56;97657.94;;;3.80;100.00
56182;BME280;51963;46.052;14.544;2022-11-20T03:13:21;97652.03;;;3.70;100.00
56182;BME280;51963;46.052;14.544;2022-11-20T03:15:47;97655.50;;;3.78;100.00
56182;BME280;51963;46.052;14.544;2022-11-20T03:18:12;97656.78;;;3.74;100.00
56182;BME280;51963;46.052;14.544;2022-11-20T03:20:39;97649.75;;;3.75;100.00
56182;BME280;51963;46.052;14.544;2022-11-20T03:23:04;97663.16;;;3.80;100.00
56182;BME280;51963;46.052;14.544;2022-11-20T03:25:30;97654.16;;;3.66;100.00
56182;BME280;51963;46.052;14.544;2022-11-20T03:27:56;97650.72;;;3.74;100.00
56182;BME280;51963;46.052;14.544;2022-11-20T03:30:21;97649.59;;;3.68;100.00
56182;BME280;51963;46.052;14.544;2022-11-20T03:32:47;97653.31;;;3.57;100.00
56182;BME280;51963;46.052;14.544;2022-11-20T03:35:13;97639.94;;;3.60;100.00
56182;BME280;51963;46.052;14.544;2022-11-20T03:37:38;97642.56;;;3.69;100.00
56182;BME280;51963;46.052;14.544;2022-11-20T03:40:05;97644.50;;;3.58;100.00
56182;BME280;51963;46.052;14.544;2022-11-20T03:42:30;97649.22;;;3.46;100.00
56182;BME280;51963;46.052;14.544;2022-11-20T03:45:15;97652.25;;;3.25;100.00
56182;BME280;51963;46.052;14.544;2022-11-20T03:47:42;97650.88;;;3.04;100.00
56182;BME280;51963;46.052;14.544;2022-11-20T03:50:09;97656.41;;;3.01;100.00
56182;BME280;51963;46.052;14.544;2022-11-20T03:52:36;97644.16;;;2.93;100.00
56182;BME280;51963;46.052;14.544;2022-11-20T03:55:01;97644.31;;;2.92;100.00
56182;BME280;51963;46.052;14.544;2022-11-20T03:57:27;97659.16;;;2.91;100.00
56182;BME280;51963;46.052;14.544;2022-11-20T03:59:52;97644.66;;;2.97;100.00
56182;BME280;51963;46.052;14.544;2022-11-20T04:02:18;97633.50;;;2.87;100.00
56182;BME280;51963;46.052;14.544;2022-11-20T04:04:44;97641.00;;;2.82;100.00
56182;BME280;51963;46.052;14.544;2022-11-20T04:07:09;97649.44;;;2.75;100.00
56182;BME280;51963;46.052;14.544;2022-11-20T04:09:35;97646.91;;;2.92;100.00
56182;BME280;51963;46.052;14.544;2022-11-20T04:12:00;97646.75;;;2.85;100.00
56182;BME280;51963;46.052;14.544;2022-11-20T04:14:26;97644.22;;;2.75;100.00
56182;BME280;51963;46.052;14.544;2022-11-20T04:16:52;97641.31;;;2.78;100.00
56182;BME280;51963;46.052;14.544;2022-11-20T04:19:18;97640.28;;;2.71;100.00
56182;BME280;51963;46.052;14.544;2022-11-20T04:21:44;97648.78;;;2.73;100.00
56182;BME280;51963;46.052;14.544;2022-11-20T04:24:10;97652.41;;;2.81;100.00
56182;BME280;51963;46.052;14.544;2022-11-20T04:26:36;97667.09;;;2.82;100.00
56182;BME280;51963;46.052;14.544;2022-11-20T04:29:02;97662.50;;;2.75;100.00
56182;BME280;51963;46.052;14.544;2022-11-20T04:31:32;97663.28;;;2.68;100.00
56182;BME280;51963;46.052;14.544;2022-11-20T04:34:04;97662.16;;;2.70;100.00
56182;BME280;51963;46.052;14.544;2022-11-20T04:36:30;97655.59;;;2.66;100.00
56182;BME280;51963;46.052;14.544;2022-11-20T04:38:58;97663.34;;;2.76;100.00
56182;BME280;51963;46.052;14.544;2022-11-20T04:41:26;97662.81;;;2.72;100.00
56182;BME280;51963;46.052;14.544;2022-11-20T04:43:55;97659.59;;;2.78;100.00
56182;BME280;51963;46.052;14.544;2022-11-20T04:46:32;97657.94;;;2.77;100.00
56182;BME280;51963;46.052;14.544;2022-11-20T04:48:59;97659.09;;;2.75;100.00
56182;BME280;51963;46.052;14.544;2022-11-20T04:51:25;97663.94;;;2.70;100.00
56182;BME280;51963;46.052;14.544;2022-11-20T04:53:51;97667.00;;;2.65;100.00
56182;BME280;51963;46.052;14.544;2022-11-20T04:56:17;97669.63;;;2.65;100.00
56182;BME280;51963;46.052;14.544;2022-11-20T04:58:43;97668.97;;;2.63;100.00
56182;BME280;51963;46.052;14.544;2022-11-20T05:01:18;97667.94;;;2.56;100.00
56182;BME280;51963;46.052;14.544;2022-11-20T05:03:44;97669.88;;;2.54;100.00
56182;BME280;51963;46.052;14.544;2022-11-20T05:06:12;97668.56;;;2.49;100.00
56182;BME280;51963;46.052;14.544;2022-11-20T05:08:39;97664.09;;;2.68;100.00
56182;BME280;51963;46.052;14.544;2022-11-20T05:11:07;97672.22;;;2.65;100.00
56182;BME280;51963;46.052;14.544;2022-11-20T05:13:33;97649.50;;;2.57;100.00
56182;BME280;51963;46.052;14.544;2022-11-20T05:16:08;97662.72;;;2.56;100.00
56182;BME280;51963;46.052;14.544;2022-11-20T05:18:36;97660.78;;;2.58;100.00
56182;BME280;51963;46.052;14.544;2022-11-20T05:21:01;97671.03;;;2.59;100.00
56182;BME280;51963;46.052;14.544;2022-11-20T05:23:29;97659.13;;;2.57;100.00
56182;BME280;51963;46.052;14.544;2022-11-20T05:25:56;97668.97;;;2.63;100.00
56182;BME280;51963;46.052;14.544;2022-11-20T05:28:22;97665.59;;;2.71;100.00
56182;BME280;51963;46.052;14.544;2022-11-20T05:30:48;97674.56;;;3.03;100.00
56182;BME280;51963;46.052;14.544;2022-11-20T05:33:14;97684.59;;;3.24;100.00
56182;BME280;51963;46.052;14.544;2022-11-20T05:35:40;97678.38;;;3.25;100.00
56182;BME280;51963;46.052;14.544;2022-11-20T05:38:06;97678.72;;;3.30;100.00
56182;BME280;51963;46.052;14.544;2022-11-20T05:40:32;97680.72;;;3.36;100.00
56182;BME280;51963;46.052;14.544;2022-11-20T05:42:57;97682.34;;;3.37;100.00
56182;BME280;51963;46.052;14.544;2022-11-20T05:45:23;97688.56;;;3.36;100.00
56182;BME280;51963;46.052;14.544;2022-11-20T05:47:49;97686.13;;;3.00;100.00
56182;BME280;51963;46.052;14.544;2022-11-20T05:50:14;97693.72;;;3.20;100.00
56182;BME280;51963;46.052;14.544;2022-11-20T05:52:41;97692.03;;;3.11;100.00
56182;BME280;51963;46.052;14.544;2022-11-20T05:55:07;97690.63;;;3.16;100.00
56182;BME280;51963;46.052;14.544;2022-11-20T05:57:33;97700.53;;;3.13;100.00
56182;BME280;51963;46.052;14.544;2022-11-20T05:59:58;97696.00;;;3.23;100.00
56182;BME280;51963;46.052;14.544;2022-11-20T06:02:26;97691.72;;;3.14;100.00
56182;BME280;51963;46.052;14.544;2022-11-20T06:04:51;97689.66;;;3.26;100.00
56182;BME280;51963;46.052;14.544;2022-11-20T06:07:17;97684.66;;;3.41;100.00
56182;BME280;51963;46.052;14.544;2022-11-20T06:09:43;97700.66;;;3.46;100.00
56182;BME280;51963;46.052;14.544;2022-11-20T06:12:08;97705.75;;;3.47;100.00
56182;BME280;51963;46.052;14.544;2022-11-20T06:14:37;97712.38;;;3.33;100.00
56182;BME280;51963;46.052;14.544;2022-11-20T06:17:02;97709.41;;;3.28;100.00
56182;BME280;51963;46.052;14.544;2022-11-20T06:19:47;97716.28;;;3.29;100.00
56182;BME280;51963;46.052;14.544;2022-11-20T06:22:14;97710.00;;;3.14;100.00
56182;BME280;51963;46.052;14.544;2022-11-20T06:24:40;97721.47;;;3.21;100.00
56182;BME280;51963;46.052;14.544;2022-11-20T06:27:06;97723.50;;;3.35;100.00
56182;BME280;51963;46.052;14.544;2022-11-20T06:29:31;97727.41;;;3.31;100.00
56182;BME280;51963;46.052;14.544;2022-11-20T06:31:57;97729.72;;;3.00;100.00
56182;BME280;51963;46.052;14.544;2022-11-20T06:34:22;97738.34;;;3.00;100.00
56182;BME280;51963;46.052;14.544;2022-11-20T06:36:48;97743.16;;;3.13;100.00
56182;BME280;51963;46.052;14.544;2022-11-20T06:39:14;97749.81;;;3.07;100.00
56182;BME280;51963;46.052;14.544;2022-11-20T06:41:40;97745.34;;;2.91;100.00
56182;BME280;51963;46.052;14.544;2022-11-20T06:44:05;97751.88;;;2.96;100.00
56182;BME280;51963;46.052;14.544;2022-11-20T06:46:31;97749.09;;;2.97;100.00
56182;BME280;51963;46.052;14.544;2022-11-20T06:48:57;97750.38;;;2.93;100.00
56182;BME280;51963;46.052;14.544;2022-11-20T06:51:24;97744.50;;;2.91;100.00
56182;BME280;51963;46.052;14.544;2022-11-20T06:54:05;97751.94;;;2.77;100.00
56182;BME280;51963;46.052;14.544;2022-11-20T06:56:31;97757.41;;;2.66;100.00
56182;BME280;51963;46.052;14.544;2022-11-20T06:58:57;97761.94;;;2.64;100.00
56182;BME280;51963;46.052;14.544;2022-11-20T07:01:22;97761.28;;;2.62;100.00
56182;BME280;51963;46.052;14.544;2022-11-20T07:03:49;97768.50;;;2.68;100.00
56182;BME280;51963;46.052;14.544;2022-11-20T07:06:16;97780.53;;;2.61;100.00
56182;BME280;51963;46.052;14.544;2022-11-20T07:08:41;97777.97;;;2.69;100.00
56182;BME280;51963;46.052;14.544;2022-11-20T07:11:07;97778.28;;;2.66;100.00
56182;BME280;51963;46.052;14.544;2022-11-20T07:13:34;97778.13;;;2.68;100.00
56182;BME280;51963;46.052;14.544;2022-11-20T07:16:04;97791.38;;;2.74;100.00
56182;BME280;51963;46.052;14.544;2022-11-20T07:18:30;97777.84;;;2.71;100.00
56182;BME280;51963;46.052;14.544;2022-11-20T07:20:55;97789.66;;;2.83;100.00
56182;BME280;51963;46.052;14.544;2022-11-20T07:23:21;97797.03;;;2.88;100.00
56182;BME280;51963;46.052;14.544;2022-11-20T07:25:50;97799.34;;;2.91;100.00
56182;BME280;51963;46.052;14.544;2022-11-20T07:28:15;97806.19;;;2.92;100.00
56182;BME280;51963;46.052;14.544;2022-11-20T07:30:41;97798.66;;;2.89;100.00
56182;BME280;51963;46.052;14.544;2022-11-20T07:33:06;97808.00;;;2.91;100.00
56182;BME280;51963;46.052;14.544;2022-11-20T07:35:32;97808.38;;;2.78;100.00
56182;BME280;51963;46.052;14.544;2022-11-20T07:37:58;97804.66;;;2.81;100.00
56182;BME280;51963;46.052;14.544;2022-11-20T07:40:24;97809.59;;;2.84;100.00
56182;BME280;51963;46.052;14.544;2022-11-20T07:42:56;97808.50;;;2.95;100.00
56182;BME280;51963;46.052;14.544;2022-11-20T07:45:25;97814.25;;;2.99;100.00
56182;BME280;51963;46.052;14.544;2022-11-20T07:47:51;97821.25;;;2.98;100.00
56182;BME280;51963;46.052;14.544;2022-11-20T07:50:17;97825.81;;;2.96;100.00
56182;BME280;51963;46.052;14.544;2022-11-20T07:52:43;97820.34;;;3.07;100.00
56182;BME280;51963;46.052;14.544;2022-11-20T07:55:11;97824.94;;;3.14;100.00
56182;BME280;51963;46.052;14.544;2022-11-20T07:57:37;97833.63;;;3.14;100.00
56182;BME280;51963;46.052;14.544;2022-11-20T08:00:04;97837.19;;;3.40;100.00
56182;BME280;51963;46.052;14.544;2022-11-20T08:02:38;97829.25;;;3.49;100.00
56182;BME280;51963;46.052;14.544;2022-11-20T08:05:05;97840.47;;;3.42;100.00
56182;BME280;51963;46.052;14.544;2022-11-20T08:07:36;97829.41;;;3.48;100.00
56182;BME280;51963;46.052;14.544;2022-11-20T08:10:02;97834.22;;;3.34;100.00
56182;BME280;51963;46.052;14.544;2022-11-20T08:12:28;97848.09;;;3.61;100.00
56182;BME280;51963;46.052;14.544;2022-11-20T08:15:11;97840.88;;;3.55;100.00
56182;BME280;51963;46.052;14.544;2022-11-20T08:17:37;97859.25;;;3.72;100.00
56182;BME280;51963;46.052;14.544;2022-11-20T08:20:03;97857.94;;;3.76;100.00
56182;BME280;51963;46.052;14.544;2022-11-20T08:22:29;97864.19;;;3.83;100.00
56182;BME280;51963;46.052;14.544;2022-11-20T08:24:54;97870.97;;;3.94;100.00
56182;BME280;51963;46.052;14.544;2022-11-20T08:27:20;97869.59;;;3.81;100.00
56182;BME280;51963;46.052;14.544;2022-11-20T08:29:46;97870.06;;;3.77;100.00
56182;BME280;51963;46.052;14.544;2022-11-20T08:32:14;97871.00;;;3.67;100.00
56182;BME280;51963;46.052;14.544;2022-11-20T08:34:40;97862.13;;;3.60;100.00
56182;BME280;51963;46.052;14.544;2022-11-20T08:37:06;97866.22;;;3.97;100.00
56182;BME280;51963;46.052;14.544;2022-11-20T08:39:31;97878.66;;;4.04;100.00
56182;BME280;51963;46.052;14.544;2022-11-20T08:41:57;97881.19;;;3.79;100.00
56182;BME280;51963;46.052;14.544;2022-11-20T08:44:23;97881.13;;;3.71;100.00
56182;BME280;51963;46.052;14.544;2022-11-20T08:46:49;97882.22;;;3.94;100.00
56182;BME280;51963;46.052;14.544;2022-11-20T08:49:15;97882.81;;;4.15;100.00
56182;BME280;51963;46.052;14.544;2022-11-20T08:51:41;97883.94;;;4.12;100.00
56182;BME280;51963;46.052;14.544;2022-11-20T08:54:07;97889.47;;;4.09;100.00
56182;BME280;51963;46.052;14.544;2022-11-20T08:56:34;97895.03;;;4.06;100.00
56182;BME280;51963;46.052;14.544;2022-11-20T08:58:59;97895.06;;;4.14;100.00
56182;BME280;51963;46.052;14.544;2022-11-20T09:01:26;97886.09;;;4.25;100.00
56182;BME280;51963;46.052;14.544;2022-11-20T09:03:52;97892.16;;;4.25;100.00
56182;BME280;51963;46.052;14.544;2022-11-20T09:06:18;97897.00;;;4.12;100.00
56182;BME280;51963;46.052;14.544;2022-11-20T09:08:44;97903.50;;;4.00;100.00
56182;BME280;51963;46.052;14.544;2022-11-20T09:11:10;97890.03;;;3.86;100.00
56182;BME280;51963;46.052;14.544;2022-11-20T09:13:36;97896.94;;;3.95;100.00
56182;BME280;51963;46.052;14.544;2022-11-20T09:16:05;97899.91;;;4.01;100.00
56182;BME280;51963;46.052;14.544;2022-11-20T09:18:31;97902.63;;;4.25;100.00
56182;BME280;51963;46.052;14.544;2022-11-20T09:20:59;97904.44;;;4.25;100.00
56182;BME280;51963;46.052;14.544;2022-11-20T09:23:25;97904.22;;;4.18;100.00
56182;BME280;51963;46.052;14.544;2022-11-20T09:25:51;97907.53;;;4.29;100.00
56182;BME280;51963;46.052;14.544;2022-11-20T09:28:19;97904.97;;;4.45;100.00
56182;BME280;51963;46.052;14.544;2022-11-20T09:30:45;97910.06;;;4.47;100.00
56182;BME280;51963;46.052;14.544;2022-11-20T09:33:13;97906.94;;;4.60;100.00
56182;BME280;51963;46.052;14.544;2022-11-20T09:35:43;97909.25;;;4.63;100.00
56182;BME280;51963;46.052;14.544;2022-11-20T09:38:09;97908.59;;;4.61;100.00
56182;BME280;51963;46.052;14.544;2022-11-20T09:40:40;97904.63;;;4.48;100.00
56182;BME280;51963;46.052;14.544;2022-11-20T09:43:17;97911.88;;;4.71;100.00
56182;BME280;51963;46.052;14.544;2022-11-20T09:46:20;97912.19;;;4.60;100.00
56182;BME280;51963;46.052;14.544;2022-11-20T09:51:41;97907.97;;;4.92;100.00
56182;BME280;51963;46.052;14.544;2022-11-20T09:54:18;97898.81;;;4.88;100.00
56182;BME280;51963;46.052;14.544;2022-11-20T09:56:54;97881.63;;;5.10;100.00
56182;BME280;51963;46.052;14.544;2022-11-20T09:59:47;97900.13;;;5.25;100.00
56182;BME280;51963;46.052;14.544;2022-11-20T10:05:12;97897.66;;;5.40;100.00
56182;BME280;51963;46.052;14.544;2022-11-20T10:10:20;97891.84;;;5.86;100.00
56182;BME280;51963;46.052;14.544;2022-11-20T10:21:12;97880.34;;;6.27;100.00
56182;BME280;51963;46.052;14.544;2022-11-20T10:29:29;97877.63;;;6.20;100.00
56182;BME280;51963;46.052;14.544;2022-11-20T10:32:04;97883.31;;;6.24;100.00
56182;BME280;51963;46.052;14.544;2022-11-20T10:34:50;97883.44;;;6.39;100.00
56182;BME280;51963;46.052;14.544;2022-11-20T10:37:27;97884.38;;;6.46;100.00
56182;BME280;51963;46.052;14.544;2022-11-20T10:43:04;97872.72;;;6.17;100.00
56182;BME280;51963;46.052;14.544;2022-11-20T10:45:49;97881.81;;;5.90;100.00
56182;BME280;51963;46.052;14.544;2022-11-20T10:48:21;97879.66;;;6.01;100.00
56182;BME280;51963;46.052;14.544;2022-11-20T11:01:42;97879.22;;;6.53;100.00
56182;BME280;51963;46.052;14.544;2022-11-20T11:07:16;97883.13;;;6.34;100.00
56182;BME280;51963;46.052;14.544;2022-11-20T11:09:47;97880.66;;;6.32;100.00
56182;BME280;51963;46.052;14.544;2022-11-20T11:12:13;97885.78;;;6.25;100.00
56182;BME280;51963;46.052;14.544;2022-11-20T11:14:57;97878.88;;;6.33;100.00
56182;BME280;51963;46.052;14.544;2022-11-20T11:17:28;97884.16;;;6.24;100.00
56182;BME280;51963;46.052;14.544;2022-11-20T11:20:04;97879.56;;;6.26;100.00
56182;BME280;51963;46.052;14.544;2022-11-20T11:22:32;97878.31;;;6.14;100.00
56182;BME280;51963;46.052;14.544;2022-11-20T11:24:59;97882.94;;;6.04;100.00
56182;BME280;51963;46.052;14.544;2022-11-20T11:27:25;97881.63;;;5.99;100.00
56182;BME280;51963;46.052;14.544;2022-11-20T11:30:01;97878.50;;;6.04;100.00
56182;BME280;51963;46.052;14.544;2022-11-20T11:32:28;97884.72;;;6.03;100.00
56182;BME280;51963;46.052;14.544;2022-11-20T11:35:06;97883.63;;;5.89;100.00
56182;BME280;51963;46.052;14.544;2022-11-20T11:37:39;97879.19;;;5.90;100.00
56182;BME280;51963;46.052;14.544;2022-11-20T11:40:08;97877.72;;;5.87;100.00
56182;BME280;51963;46.052;14.544;2022-11-20T11:42:35;97877.69;;;5.95;100.00
56182;BME280;51963;46.052;14.544;2022-11-20T11:45:07;97877.69;;;6.04;100.00
56182;BME280;51963;46.052;14.544;2022-11-20T11:47:44;97875.06;;;5.95;100.00
56182;BME280;51963;46.052;14.544;2022-11-20T11:50:16;97869.81;;;5.95;100.00
56182;BME280;51963;46.052;14.544;2022-11-20T12:00:36;97865.25;;;5.89;100.00
56182;BME280;51963;46.052;14.544;2022-11-20T12:05:49;97860.44;;;6.09;100.00
56182;BME280;51963;46.052;14.544;2022-11-20T12:08:27;97867.47;;;6.17;100.00
56182;BME280;51963;46.052;14.544;2022-11-20T12:13:50;97869.75;;;6.20;100.00
56182;BME280;51963;46.052;14.544;2022-11-20T12:16:19;97861.88;;;6.20;100.00
56182;BME280;51963;46.052;14.544;2022-11-20T12:18:50;97862.75;;;6.04;100.00
56182;BME280;51963;46.052;14.544;2022-11-20T12:26:51;97862.66;;;6.21;100.00
56182;BME280;51963;46.052;14.544;2022-11-20T12:39:35;97864.59;;;6.58;100.00
56182;BME280;51963;46.052;14.544;2022-11-20T12:59:12;97851.22;;;7.30;100.00
56182;BME280;51963;46.052;14.544;2022-11-20T13:01:52;97848.88;;;7.35;100.00
56182;BME280;51963;46.052;14.544;2022-11-20T13:07:08;97843.53;;;7.73;100.00
56182;BME280;51963;46.052;14.544;2022-11-20T13:09:41;97840.34;;;7.63;100.00
56182;BME280;51963;46.052;14.544;2022-11-20T13:12:14;97833.34;;;7.85;100.00
56182;BME280;51963;46.052;14.544;2022-11-20T13:14:51;97828.41;;;8.12;100.00
56182;BME280;51963;46.052;14.544;2022-11-20T13:17:30;97818.69;;;8.13;100.00
56182;BME280;51963;46.052;14.544;2022-11-20T13:19:59;97836.69;;;8.09;100.00
56182;BME280;51963;46.052;14.544;2022-11-20T13:22:27;97827.88;;;8.39;99.70
56182;BME280;51963;46.052;14.544;2022-11-20T13:24:53;97824.69;;;8.43;99.07
56182;BME280;51963;46.052;14.544;2022-11-20T13:27:21;97823.63;;;8.37;99.93
56182;BME280;51963;46.052;14.544;2022-11-20T13:29:58;97822.97;;;8.35;98.79
56182;BME280;51963;46.052;14.544;2022-11-20T13:32:26;97819.44;;;8.06;99.40
56182;BME280;51963;46.052;14.544;2022-11-20T13:35:02;97823.63;;;7.86;99.37
56182;BME280;51963;46.052;14.544;2022-11-20T13:37:37;97821.38;;;7.83;100.00
56182;BME280;51963;46.052;14.544;2022-11-20T13:43:14;97808.59;;;6.58;100.00
56182;BME280;51963;46.052;14.544;2022-11-20T13:45:41;97814.97;;;6.64;100.00
56182;BME280;51963;46.052;14.544;2022-11-20T13:48:22;97811.66;;;6.70;100.00
56182;BME280;51963;46.052;14.544;2022-11-20T14:02:22;97817.78;;;6.62;100.00
56182;BME280;51963;46.052;14.544;2022-11-20T14:04:51;97803.19;;;6.59;100.00
56182;BME280;51963;46.052;14.544;2022-11-20T14:07:26;97809.03;;;6.70;100.00
56182;BME280;51963;46.052;14.544;2022-11-20T14:09:57;97812.78;;;6.52;100.00
56182;BME280;51963;46.052;14.544;2022-11-20T14:12:28;97811.53;;;6.63;100.00
56182;BME280;51963;46.052;14.544;2022-11-20T14:14:55;97823.19;;;6.37;100.00
56182;BME280;51963;46.052;14.544;2022-11-20T14:17:24;97822.31;;;6.92;100.00
56182;BME280;51963;46.052;14.544;2022-11-20T14:19:51;97812.59;;;6.92;100.00
56182;BME280;51963;46.052;14.544;2022-11-20T14:22:23;97816.19;;;7.14;100.00
56182;BME280;51963;46.052;14.544;2022-11-20T14:27:27;97815.13;;;7.24;100.00
56182;BME280;51963;46.052;14.544;2022-11-20T14:29:52;97813.16;;;6.87;100.00
56182;BME280;51963;46.052;14.544;2022-11-20T14:32:20;97814.34;;;6.62;100.00
56182;BME280;51963;46.052;14.544;2022-11-20T14:34:49;97806.09;;;6.65;100.00
56182;BME280;51963;46.052;14.544;2022-11-20T14:37:36;97799.22;;;6.64;100.00
56182;BME280;51963;46.052;14.544;2022-11-20T14:40:20;97815.50;;;6.82;100.00
56182;BME280;51963;46.052;14.544;2022-11-20T14:42:47;97805.63;;;6.84;100.00
56182;BME280;51963;46.052;14.544;2022-11-20T14:45:13;97810.31;;;6.74;100.00